Time;durP1;ratioP1;P1;durP2;ratioP2;P2;SDS_P1;SDS_P2;PMS_P1;PMS_P2;Temp;Humidity;BMP_temperature;BMP_pressure;BME280_temperature;BME280_humidity;BME280_pressure;Samples;Min_cycle;Max_cycle;Signal;HPM_P1;HPM_P2
2021/09/16 00:00:29;;;;;;;;;11.00;10.50;;;;;19.77;62.76;100889.28;5076827;27;45735;-81
2021/09/16 00:06:16;;;;;;;;;12.00;9.25;;;;;19.86;63.20;100917.59;5076584;28;45795;-80
2021/09/16 00:08:42;;;;;;;;;9.50;9.50;;;;;19.82;63.16;100905.59;5076315;27;45667;-81
2021/09/16 00:11:07;;;;;;;;;13.75;10.50;;;;;19.84;62.92;100908.09;5075917;27;47089;-80
2021/09/16 00:13:33;;;;;;;;;11.00;9.75;;;;;19.77;62.79;100907.06;5075000;28;45621;-80
2021/09/16 00:15:58;;;;;;;;;11.00;10.50;;;;;19.80;62.80;100907.59;5076620;27;45575;-80
2021/09/16 00:18:23;;;;;;;;;10.00;10.00;;;;;19.85;62.79;100915.91;5076648;27;45679;-82
2021/09/16 00:20:49;;;;;;;;;9.75;9.00;;;;;19.86;62.78;100916.75;5076323;27;45715;-83
2021/09/16 00:23:15;;;;;;;;;10.75;9.50;;;;;19.84;62.81;100916.91;5077171;27;45601;-83
2021/09/16 00:25:41;;;;;;;;;12.25;9.50;;;;;19.78;62.86;100896.28;5077029;27;45565;-82
2021/09/16 00:28:06;;;;;;;;;9.00;9.00;;;;;19.84;62.90;100911.59;5076309;27;46591;-81
2021/09/16 00:30:33;;;;;;;;;7.75;7.00;;;;;19.85;62.77;100907.09;5076789;27;45582;-84
2021/09/16 00:36:20;;;;;;;;;11.00;10.50;;;;;19.84;62.91;100897.47;5076341;28;45684;-82
2021/09/16 00:38:45;;;;;;;;;12.50;9.75;;;;;19.85;62.76;100905.28;5077437;27;45658;-81
2021/09/16 00:41:11;;;;;;;;;12.00;11.00;;;;;19.75;62.77;100899.28;5076879;27;45601;-80
2021/09/16 00:43:36;;;;;;;;;11.50;9.75;;;;;19.82;62.97;100921.53;5077011;27;45709;-82
2021/09/16 00:46:04;;;;;;;;;8.00;8.00;;;;;19.79;63.00;100929.84;5077074;27;45488;-80
2021/09/16 00:48:30;;;;;;;;;11.50;10.75;;;;;19.79;62.89;100923.72;5076118;27;45623;-81
2021/09/16 00:50:55;;;;;;;;;8.75;8.00;;;;;19.78;63.18;100936.16;5075879;27;45661;-83
2021/09/16 00:53:22;;;;;;;;;11.00;9.50;;;;;19.68;63.14;100914.19;5076517;27;45664;-82
2021/09/16 00:55:51;;;;;;;;;11.25;10.50;;;;;19.74;63.01;100926.84;5076317;27;45701;-80
2021/09/16 00:58:20;;;;;;;;;7.00;7.00;;;;;19.59;62.76;100905.38;5075644;27;45907;-81
2021/09/16 01:00:46;;;;;;;;;9.75;9.75;;;;;19.66;62.90;100922.31;5073931;28;47304;-82
2021/09/16 01:07:02;;;;;;;;;11.50;11.00;;;;;19.73;63.07;100933.16;5075597;28;45663;-81
2021/09/16 01:09:28;;;;;;;;;11.25;10.25;;;;;19.65;63.43;100927.78;5075901;27;45743;-79
2021/09/16 01:11:54;;;;;;;;;9.50;8.50;;;;;19.72;63.04;100939.47;5075881;27;45582;-81
2021/09/16 01:14:28;;;;;;;;;9.75;9.50;;;;;19.69;63.04;100929.16;5076199;27;45617;-80
2021/09/16 01:16:54;;;;;;;;;7.25;7.00;;;;;19.69;63.03;100935.31;5076242;27;45502;-80
2021/09/16 01:19:21;;;;;;;;;9.75;9.50;;;;;19.65;63.24;100941.91;5075857;27;45572;-80
2021/09/16 01:21:48;;;;;;;;;12.00;10.25;;;;;19.66;63.24;100940.09;5075212;27;46428;-79
2021/09/16 01:24:14;;;;;;;;;10.50;9.75;;;;;19.51;63.41;100933.72;5075854;27;45699;-79
2021/09/16 01:26:41;;;;;;;;;12.50;11.50;;;;;19.53;63.21;100937.06;5076018;27;45640;-82
2021/09/16 01:29:07;;;;;;;;;10.00;9.75;;;;;19.57;63.25;100954.34;5076120;27;45584;-80
2021/09/16 01:31:36;;;;;;;;;7.00;7.00;;;;;19.52;63.67;100954.00;5075957;27;45652;-81
2021/09/16 01:34:06;;;;;;;;;10.25;10.25;;;;;19.22;63.52;100920.72;5076415;27;45725;-80
2021/09/16 01:36:32;;;;;;;;;10.25;10.25;;;;;19.35;63.36;100965.47;5076958;27;45758;-80
2021/09/16 01:38:59;;;;;;;;;9.50;7.50;;;;;19.29;63.88;100961.63;5076253;27;46440;-81
2021/09/16 01:41:25;;;;;;;;;9.50;9.50;;;;;19.23;63.36;100957.78;5074363;28;45892;-81
2021/09/16 01:43:51;;;;;;;;;10.25;10.25;;;;;19.17;64.16;100958.41;5075794;27;45717;-83
2021/09/16 01:46:17;;;;;;;;;8.00;7.50;;;;;19.15;63.87;100965.69;5075242;27;45868;-81
2021/09/16 01:52:04;;;;;;;;;12.25;11.75;;;;;19.01;64.40;100970.72;5064016;28;46065;-80
2021/09/16 01:54:29;;;;;;;;;10.75;9.75;;;;;18.93;64.57;100976.81;5075892;27;45578;-81
2021/09/16 01:56:55;;;;;;;;;8.25;8.25;;;;;18.83;64.63;100958.31;5075678;27;45514;-81
2021/09/16 01:59:20;;;;;;;;;10.25;9.75;;;;;18.71;64.50;100945.44;5075651;27;45572;-83
2021/09/16 02:01:46;;;;;;;;;12.50;11.50;;;;;18.79;64.82;100964.06;5075434;28;45596;-84
2021/09/16 02:04:11;;;;;;;;;10.00;10.00;;;;;18.60;64.51;100945.66;5075498;27;45958;-83
2021/09/16 02:06:37;;;;;;;;;9.25;9.25;;;;;18.58;64.78;100943.16;5075232;27;45539;-81
2021/09/16 02:09:02;;;;;;;;;12.50;11.00;;;;;18.56;64.93;100939.00;5075161;27;45603;-82
2021/09/16 02:11:28;;;;;;;;;12.00;11.00;;;;;18.69;65.06;100966.81;5075005;27;45621;-81
2021/09/16 02:13:53;;;;;;;;;11.00;9.75;;;;;18.63;65.13;100958.63;5075033;27;45651;-82
2021/09/16 02:16:18;;;;;;;;;11.00;11.00;;;;;18.60;64.67;100958.94;5074879;27;45565;-80
2021/09/16 02:22:05;;;;;;;;;10.00;10.00;;;;;18.59;65.38;100962.56;5074829;28;45969;-82
2021/09/16 02:24:31;;;;;;;;;10.25;10.00;;;;;18.62;64.92;100967.59;5075282;27;45722;-82
2021/09/16 02:26:56;;;;;;;;;12.25;11.00;;;;;18.60;65.33;100964.25;5075740;27;45436;-81
2021/09/16 02:29:22;;;;;;;;;10.00;9.00;;;;;18.61;65.59;100974.72;5073607;28;46523;-81
2021/09/16 02:31:47;;;;;;;;;10.50;9.75;;;;;18.61;65.45;100982.69;5074946;27;45695;-80
2021/09/16 02:37:34;;;;;;;;;11.00;10.00;;;;;18.58;65.31;100979.47;5077868;28;45718;-78
2021/09/16 02:39:59;;;;;;;;;10.00;9.75;;;;;18.60;65.06;100982.81;5078074;28;45830;-80
2021/09/16 02:42:25;;;;;;;;;9.00;9.00;;;;;18.46;65.36;100955.78;5076563;28;46144;-81
2021/09/16 02:44:50;;;;;;;;;10.75;10.75;;;;;18.50;65.15;100969.59;5078199;27;45472;-83
2021/09/16 02:47:16;;;;;;;;;11.25;10.50;;;;;18.49;65.40;100973.25;5078184;28;45699;-83
2021/09/16 02:49:42;;;;;;;;;9.00;8.00;;;;;18.56;65.83;100976.16;5077818;27;46419;-81
2021/09/16 02:52:07;;;;;;;;;9.00;9.00;;;;;18.50;65.53;100959.00;5077457;27;46048;-81
2021/09/16 02:54:33;;;;;;;;;10.00;10.00;;;;;18.57;65.37;100980.50;5077806;28;45664;-81
2021/09/16 02:56:58;;;;;;;;;12.50;11.25;;;;;18.44;65.39;100959.59;5077657;28;45758;-79
2021/09/16 02:59:23;;;;;;;;;10.75;8.75;;;;;18.38;65.52;100952.22;5077320;27;46391;-81
2021/09/16 03:01:49;;;;;;;;;11.50;9.75;;;;;18.59;65.90;100984.63;5077725;27;45686;-80
2021/09/16 03:07:36;;;;;;;;;10.00;9.00;;;;;18.45;65.44;100979.84;5077600;28;45484;-82
2021/09/16 03:10:03;;;;;;;;;11.50;11.00;;;;;18.60;65.69;100999.59;5077683;27;46733;-82
2021/09/16 03:12:28;;;;;;;;;11.75;11.00;;;;;18.61;65.63;101003.06;5077364;27;45687;-80
2021/09/16 03:14:53;;;;;;;;;10.00;10.00;;;;;18.61;65.45;100987.16;5077883;28;45589;-83
2021/09/16 03:17:19;;;;;;;;;10.00;10.00;;;;;18.61;65.69;100990.66;5077516;27;45672;-79
2021/09/16 03:23:06;;;;;;;;;11.75;9.75;;;;;18.63;65.37;100993.97;5078171;28;45935;-80
2021/09/16 03:25:32;;;;;;;;;8.25;8.00;;;;;18.64;65.26;100990.34;5078450;27;45749;-82
2021/09/16 03:27:57;;;;;;;;;10.00;10.00;;;;;18.59;65.49;100984.63;5077531;27;45857;-79
2021/09/16 03:30:22;;;;;;;;;12.00;10.25;;;;;18.67;65.39;101003.31;5077549;27;45628;-81
2021/09/16 03:32:48;;;;;;;;;10.00;9.50;;;;;18.67;65.31;100992.69;5077786;28;46207;-79
2021/09/16 03:35:13;;;;;;;;;13.75;13.00;;;;;18.68;65.79;100999.66;5078079;28;45571;-80
2021/09/16 03:37:39;;;;;;;;;10.50;10.50;;;;;18.69;65.93;100998.66;5077658;27;45612;-79
2021/09/16 03:40:05;;;;;;;;;9.50;8.50;;;;;18.69;65.77;100996.00;5075779;28;45669;-81
2021/09/16 03:42:32;;;;;;;;;10.25;9.50;;;;;18.58;65.63;100979.47;5076777;27;46579;-82
2021/09/16 03:44:58;;;;;;;;;10.75;10.75;;;;;18.67;65.80;100990.03;5076261;28;45513;-79
2021/09/16 03:47:23;;;;;;;;;10.75;10.75;;;;;18.66;65.93;101001.66;5076798;27;45640;-80
2021/09/16 03:53:10;;;;;;;;;12.25;12.00;;;;;18.51;65.83;100975.75;5065026;28;46131;-81
2021/09/16 03:55:36;;;;;;;;;12.25;12.25;;;;;18.44;65.87;100971.03;5077082;27;45963;-80
2021/09/16 03:58:02;;;;;;;;;13.00;11.75;;;;;18.62;65.63;101010.06;5076884;27;45840;-79
2021/09/16 04:00:27;;;;;;;;;12.25;11.25;;;;;18.33;65.64;100951.84;5076372;27;46623;-79
2021/09/16 04:02:52;;;;;;;;;11.50;11.25;;;;;18.55;65.80;101009.81;5076364;28;46121;-79
2021/09/16 04:05:18;;;;;;;;;11.00;11.00;;;;;18.59;65.86;101013.84;5076576;27;45564;-79
2021/09/16 04:07:43;;;;;;;;;12.25;10.75;;;;;18.56;65.50;101006.19;5076337;27;45630;-79
2021/09/16 04:10:10;;;;;;;;;10.75;9.75;;;;;18.47;65.94;100999.06;5076710;27;45538;-78
2021/09/16 04:12:36;;;;;;;;;10.75;10.75;;;;;18.50;65.46;101009.41;5075032;28;47253;-79
2021/09/16 04:15:03;;;;;;;;;14.00;12.25;;;;;18.54;66.03;101012.59;5076505;27;45946;-83
2021/09/16 04:17:28;;;;;;;;;10.50;9.00;;;;;18.37;65.66;101001.81;5075212;28;45724;-79
2021/09/16 04:23:16;;;;;;;;;9.00;8.75;;;;;18.50;66.04;101022.69;5076304;28;46037;-81
2021/09/16 04:25:41;;;;;;;;;10.25;9.50;;;;;18.35;65.69;101002.94;5075085;28;45631;-81
2021/09/16 04:28:07;;;;;;;;;10.25;10.00;;;;;18.51;65.46;101031.47;5076503;28;45627;-80
2021/09/16 04:30:32;;;;;;;;;10.50;10.25;;;;;18.50;65.95;101021.84;5076673;28;45631;-79
2021/09/16 04:32:57;;;;;;;;;11.00;10.75;;;;;18.52;65.83;101031.31;5076246;27;45746;-81
2021/09/16 04:38:44;;;;;;;;;9.75;9.75;;;;;18.53;65.65;101016.22;5076974;28;45666;-81
2021/09/16 04:41:10;;;;;;;;;12.00;11.25;;;;;18.50;65.74;101022.69;5075535;28;47716;-80
2021/09/16 04:43:35;;;;;;;;;13.50;12.00;;;;;18.32;65.65;100988.16;5076190;28;46822;-81
2021/09/16 04:46:01;;;;;;;;;10.75;10.00;;;;;18.43;65.50;101009.16;5075981;27;45525;-83
2021/09/16 04:48:26;;;;;;;;;13.00;11.75;;;;;18.53;65.87;101021.53;5075983;27;45494;-82
2021/09/16 04:50:51;;;;;;;;;12.75;11.75;;;;;18.49;66.03;101012.22;5076249;27;45731;-84
2021/09/16 04:53:17;;;;;;;;;11.00;10.00;;;;;18.47;65.91;101015.00;5075687;27;45701;-83
2021/09/16 04:55:42;;;;;;;;;14.00;12.00;;;;;18.49;65.91;101018.34;5076110;27;45549;-77
2021/09/16 04:58:08;;;;;;;;;15.00;12.00;;;;;18.48;65.59;101024.63;5074962;27;45643;-82
2021/09/16 05:00:33;;;;;;;;;12.00;11.50;;;;;18.43;65.74;101024.25;5075864;27;46299;-84
2021/09/16 05:03:00;;;;;;;;;12.50;9.50;;;;;18.46;65.25;101027.44;5076437;27;46471;-81
2021/09/16 05:08:47;;;;;;;;;12.75;11.75;;;;;18.40;65.93;101024.56;5076247;28;45661;-81
2021/09/16 05:11:13;;;;;;;;;12.00;10.75;;;;;18.46;65.35;101031.94;5076276;27;45682;-83
2021/09/16 05:13:39;;;;;;;;;13.00;12.00;;;;;18.45;65.45;101031.09;5078156;27;45991;-81
2021/09/16 05:16:05;;;;;;;;;9.50;9.50;;;;;18.45;65.76;101035.56;5077031;27;45666;-80
2021/09/16 05:18:30;;;;;;;;;15.00;13.25;;;;;18.41;65.83;101023.56;5076607;28;45860;-84
2021/09/16 05:24:17;;;;;;;;;11.00;10.25;;;;;18.39;65.54;101038.81;5075978;28;45691;-83
2021/09/16 05:26:46;;;;;;;;;11.50;10.50;;;;;18.20;65.36;101009.72;5075278;27;45718;-80
2021/09/16 05:29:13;;;;;;;;;12.25;11.00;;;;;18.35;65.32;101032.94;5075792;27;45640;-81
2021/09/16 05:31:39;;;;;;;;;13.00;11.00;;;;;18.34;65.71;101031.28;5075333;27;46648;-80
2021/09/16 05:34:05;;;;;;;;;9.75;9.00;;;;;18.31;65.45;101022.78;5075275;28;46014;-79
2021/09/16 05:36:31;;;;;;;;;12.00;10.25;;;;;18.36;65.79;101037.28;5075917;27;45684;-79
2021/09/16 05:38:59;;;;;;;;;10.50;9.50;;;;;18.24;65.62;101016.41;5076875;28;45561;-85
2021/09/16 05:41:34;;;;;;;;;11.75;9.50;;;;;18.34;65.88;101041.06;5079812;27;46289;-85
2021/09/16 05:43:59;;;;;;;;;10.75;8.75;;;;;18.24;65.49;101032.34;5075642;28;47389;-84
2021/09/16 05:46:25;;;;;;;;;11.00;9.00;;;;;18.23;65.90;101028.00;5075687;27;45661;-79
2021/09/16 05:48:50;;;;;;;;;13.00;10.00;;;;;18.16;65.86;101017.16;5074331;27;45783;-79
2021/09/16 05:54:37;;;;;;;;;9.25;9.00;;;;;18.26;65.50;101041.81;5063199;28;45934;-83
2021/09/16 05:57:03;;;;;;;;;6.75;6.75;;;;;18.25;65.68;101053.38;5075152;27;45639;-82
2021/09/16 05:59:29;;;;;;;;;10.00;10.00;;;;;18.17;65.27;101041.84;5074478;28;45657;-87
2021/09/16 06:01:54;;;;;;;;;9.00;9.00;;;;;18.14;65.75;101044.81;5074688;28;45618;-81
2021/09/16 06:04:20;;;;;;;;;11.75;9.00;;;;;18.23;65.90;101062.50;5074212;27;46326;-82
2021/09/16 06:06:46;;;;;;;;;10.25;9.25;;;;;18.23;65.65;101060.69;5074475;27;45615;-77
2021/09/16 06:09:11;;;;;;;;;11.00;8.00;;;;;18.24;65.78;101066.81;5078389;27;45535;-76
2021/09/16 06:11:37;;;;;;;;;9.25;9.00;;;;;18.18;65.76;101062.09;5081047;27;45803;-77
2021/09/16 06:14:02;;;;;;;;;11.50;11.25;;;;;18.18;65.24;101068.25;5081296;27;45616;-78
2021/09/16 06:16:27;;;;;;;;;12.25;11.50;;;;;18.21;65.94;101073.25;5081092;27;45620;-77
2021/09/16 06:18:53;;;;;;;;;12.75;12.00;;;;;18.16;65.76;101067.53;5081344;28;45749;-77
2021/09/16 06:24:40;;;;;;;;;8.00;7.75;;;;;18.19;65.64;101079.69;5080727;28;45742;-77
2021/09/16 06:27:05;;;;;;;;;10.50;9.25;;;;;18.20;65.76;101084.00;5080955;28;45602;-78
2021/09/16 06:29:31;;;;;;;;;9.25;9.25;;;;;18.21;65.50;101088.31;5081240;27;45518;-77
2021/09/16 06:31:57;;;;;;;;;10.50;9.00;;;;;18.23;65.82;101087.19;5081033;27;45758;-76
2021/09/16 06:34:22;;;;;;;;;10.25;9.25;;;;;18.15;65.74;101071.16;5081148;27;45648;-78
2021/09/16 06:40:10;;;;;;;;;10.00;9.25;;;;;18.25;65.77;101105.59;5081307;28;45710;-77
2021/09/16 06:42:36;;;;;;;;;10.25;8.75;;;;;18.25;65.35;101101.13;5081139;27;46703;-76
2021/09/16 06:45:02;;;;;;;;;9.00;8.25;;;;;18.19;65.63;101093.75;5080932;28;45573;-77
2021/09/16 06:47:28;;;;;;;;;6.00;5.50;;;;;18.26;65.63;101102.81;5080683;27;45481;-78
2021/09/16 06:49:53;;;;;;;;;7.50;7.50;;;;;18.29;65.43;101105.19;5080843;28;45762;-76
2021/09/16 06:52:20;;;;;;;;;8.75;7.50;;;;;18.29;65.77;101101.69;5080207;27;46393;-78
2021/09/16 06:54:46;;;;;;;;;8.50;6.50;;;;;18.29;65.12;101094.56;5080393;27;45971;-77
2021/09/16 06:57:11;;;;;;;;;7.00;6.50;;;;;18.35;65.30;101106.41;5080633;27;45644;-77
2021/09/16 06:59:37;;;;;;;;;7.75;6.75;;;;;18.37;65.36;101101.78;5080921;27;45468;-78
2021/09/16 07:02:03;;;;;;;;;10.00;7.00;;;;;18.39;65.11;101100.66;5080831;27;45792;-79
2021/09/16 07:04:29;;;;;;;;;7.00;5.75;;;;;18.41;65.20;101097.84;5080824;27;45647;-77
2021/09/16 07:10:16;;;;;;;;;7.75;7.25;;;;;18.34;65.27;101070.25;5080882;28;45550;-76
2021/09/16 07:12:42;;;;;;;;;8.00;7.00;;;;;18.46;65.07;101093.75;5080347;27;46476;-77
2021/09/16 07:15:08;;;;;;;;;8.50;6.75;;;;;18.51;64.93;101095.16;5080593;27;46964;-77
2021/09/16 07:17:33;;;;;;;;;7.25;6.75;;;;;18.53;65.29;101101.97;5080532;27;45693;-76
2021/09/16 07:19:59;;;;;;;;;6.25;5.25;;;;;18.55;64.58;101104.53;5079033;27;45588;-77
2021/09/16 07:22:24;;;;;;;;;6.00;6.00;;;;;18.56;64.65;101112.34;5077283;27;46302;-75
2021/09/16 07:24:50;;;;;;;;;5.50;5.00;;;;;18.57;64.34;101097.25;5076980;28;45948;-76
2021/09/16 07:27:15;;;;;;;;;8.00;7.25;;;;;18.56;64.26;101112.34;5076788;27;45751;-78
2021/09/16 07:29:40;;;;;;;;;8.00;7.00;;;;;18.54;64.46;101103.69;5077197;27;45651;-77
2021/09/16 07:32:06;;;;;;;;;7.25;6.75;;;;;18.54;64.79;101109.00;5077812;27;45720;-77
2021/09/16 07:34:32;;;;;;;;;5.75;5.25;;;;;18.59;64.70;101111.19;5078533;27;45764;-76
2021/09/16 07:40:20;;;;;;;;;7.00;6.00;;;;;18.63;64.40;101107.25;5077683;28;45651;-75
2021/09/16 07:42:45;;;;;;;;;5.25;4.50;;;;;18.64;64.18;101117.72;5076705;27;46670;-76
2021/09/16 07:45:11;;;;;;;;;5.00;4.50;;;;;18.61;63.85;101114.56;5076085;27;45758;-76
2021/09/16 07:47:36;;;;;;;;;5.50;4.25;;;;;18.66;64.16;101117.59;5076393;28;45656;-76
2021/09/16 07:50:02;;;;;;;;;6.50;4.75;;;;;18.66;63.87;101121.09;5076907;27;45628;-76
2021/09/16 07:52:27;;;;;;;;;5.00;3.75;;;;;18.68;63.53;101120.91;5075914;27;46426;-76
2021/09/16 07:54:53;;;;;;;;;4.00;3.50;;;;;18.63;63.73;101116.06;5075895;27;45681;-75
2021/09/16 07:57:18;;;;;;;;;4.75;4.00;;;;;18.68;63.69;101128.88;5076506;27;45658;-76
2021/09/16 07:59:43;;;;;;;;;5.75;5.00;;;;;18.63;63.04;101121.38;5076301;27;45485;-75
2021/09/16 08:02:09;;;;;;;;;5.00;4.50;;;;;18.69;63.50;101127.91;5075931;27;47611;-74
2021/09/16 08:04:34;;;;;;;;;3.25;3.25;;;;;18.72;63.06;101132.94;5076157;27;46886;-75
2021/09/16 08:07:00;;;;;;;;;4.00;4.00;;;;;18.75;63.20;101132.63;5076048;27;46120;-75
2021/09/16 08:09:25;;;;;;;;;5.50;4.50;;;;;18.75;62.68;101138.78;5076108;27;45524;-75
2021/09/16 08:11:51;;;;;;;;;5.50;5.00;;;;;18.79;62.45;101128.69;5075994;27;46475;-76
2021/09/16 08:14:17;;;;;;;;;4.00;4.00;;;;;18.79;62.84;101129.50;5076275;27;45586;-75
2021/09/16 08:16:42;;;;;;;;;4.50;4.50;;;;;18.87;62.64;101134.09;5075700;27;46050;-76
2021/09/16 08:19:07;;;;;;;;;3.00;2.50;;;;;18.87;62.68;101120.81;5075977;27;45647;-76
2021/09/16 08:21:33;;;;;;;;;5.00;4.50;;;;;18.95;62.19;101126.19;5075799;28;45682;-76
2021/09/16 08:24:00;;;;;;;;;5.00;4.00;;;;;19.01;62.49;101130.06;5075848;28;46076;-77
2021/09/16 08:26:25;;;;;;;;;3.00;3.00;;;;;18.97;62.18;101121.59;5075851;27;45726;-75
2021/09/16 08:28:51;;;;;;;;;3.75;3.75;;;;;19.07;61.82;101132.13;5075770;27;45897;-74
2021/09/16 08:31:17;;;;;;;;;3.75;3.50;;;;;19.06;61.93;101128.63;5075130;27;46338;-76
2021/09/16 08:33:44;;;;;;;;;5.00;4.75;;;;;19.14;61.93;101127.88;5075329;27;45586;-76
2021/09/16 08:36:10;;;;;;;;;5.00;5.00;;;;;19.13;61.69;101119.09;5076087;27;45480;-77
2021/09/16 08:38:36;;;;;;;;;4.00;3.75;;;;;19.15;61.64;101121.59;5076009;27;45763;-76
2021/09/16 08:41:01;;;;;;;;;4.50;4.25;;;;;19.20;61.82;101125.47;5075560;27;46403;-77
2021/09/16 08:43:30;;;;;;;;;2.50;2.50;;;;;19.24;61.55;101129.47;5075885;28;46024;-77
2021/09/16 08:45:57;;;;;;;;;3.00;2.75;;;;;19.27;61.09;101131.81;5075736;27;45698;-76
2021/09/16 08:48:22;;;;;;;;;3.00;2.25;;;;;19.29;61.16;101137.84;5075895;27;45611;-76
2021/09/16 08:50:48;;;;;;;;;2.75;2.00;;;;;19.32;60.62;101141.19;5075978;27;45487;-77
2021/09/16 08:53:17;;;;;;;;;3.00;2.75;;;;;19.36;60.54;101126.59;5075722;27;45820;-76
2021/09/16 08:55:44;;;;;;;;;4.00;2.75;;;;;19.37;60.53;101133.59;5075133;27;45550;-77
2021/09/16 08:58:11;;;;;;;;;3.50;3.50;;;;;19.42;60.67;101140.13;5075108;27;45546;-77
2021/09/16 09:00:38;;;;;;;;;4.00;4.00;;;;;19.47;60.09;101137.03;5073881;28;48176;-78
2021/09/16 09:03:04;;;;;;;;;6.00;4.50;;;;;19.50;60.36;101145.50;5075473;27;45636;-76
2021/09/16 09:05:30;;;;;;;;;3.25;3.25;;;;;19.54;60.19;101143.41;5075310;27;45655;-77
2021/09/16 09:07:59;;;;;;;;;3.00;3.00;;;;;19.57;59.73;101146.56;5075448;27;45612;-77
2021/09/16 09:10:33;;;;;;;;;2.75;2.75;;;;;19.61;59.94;101145.28;5075181;27;46906;-77
2021/09/16 09:12:59;;;;;;;;;3.50;3.00;;;;;19.65;59.99;101151.09;5075003;27;47156;-77
2021/09/16 09:15:26;;;;;;;;;4.00;2.75;;;;;19.69;59.75;101147.19;5075117;27;45576;-76
2021/09/16 09:18:09;;;;;;;;;2.00;2.00;;;;;19.76;59.66;101155.38;5075229;28;45564;-76
2021/09/16 09:20:54;;;;;;;;;3.25;2.00;;;;;19.82;59.50;101155.56;5074992;27;46480;-76
2021/09/16 09:23:42;;;;;;;;;4.75;4.00;;;;;19.81;59.36;101142.44;5075215;27;46586;-76
2021/09/16 09:26:28;;;;;;;;;2.00;2.00;;;;;19.91;59.27;101146.69;5074999;27;45738;-77
2021/09/16 09:29:09;;;;;;;;;3.00;3.00;;;;;19.91;59.13;101152.00;5075953;27;45543;-77
2021/09/16 09:31:52;;;;;;;;;3.00;3.00;;;;;19.98;58.88;101160.16;5073927;27;48415;-77
2021/09/16 09:34:29;;;;;;;;;3.50;2.75;;;;;20.01;58.99;101155.38;5075001;28;46042;-76
2021/09/16 09:37:19;;;;;;;;;4.75;3.25;;;;;20.05;58.72;101162.06;5074560;27;45675;-75
2021/09/16 09:39:47;;;;;;;;;2.25;2.25;;;;;20.09;58.80;101154.56;5075120;27;45526;-77
2021/09/16 09:42:27;;;;;;;;;4.75;4.25;;;;;20.13;58.45;101151.44;5075186;27;46529;-76
2021/09/16 09:45:02;;;;;;;;;5.25;4.50;;;;;20.14;58.24;101146.97;5075466;27;47045;-77
2021/09/16 09:47:36;;;;;;;;;4.00;4.00;;;;;20.18;58.18;101151.00;5074931;27;45463;-76
2021/09/16 09:50:05;;;;;;;;;2.25;2.25;;;;;20.22;58.29;101146.19;5075246;27;45643;-76
2021/09/16 09:52:30;;;;;;;;;4.25;4.00;;;;;20.29;58.06;101156.06;5074168;27;47306;-76
2021/09/16 09:54:55;;;;;;;;;4.25;3.00;;;;;20.30;57.82;101154.19;5074038;27;46287;-76
2021/09/16 09:57:21;;;;;;;;;4.75;4.00;;;;;20.32;57.54;101162.91;5072733;28;45533;-75
2021/09/16 09:59:58;;;;;;;;;4.00;3.00;;;;;20.32;57.15;101150.44;5074577;27;45459;-75
2021/09/16 10:02:30;;;;;;;;;4.75;4.50;;;;;20.35;57.24;101154.63;5074522;27;46369;-75
2021/09/16 10:04:57;;;;;;;;;5.50;5.00;;;;;20.35;56.85;101150.09;5074363;28;46274;-75
2021/09/16 10:07:34;;;;;;;;;4.00;3.75;;;;;20.41;56.78;101157.44;5074316;28;45651;-76
2021/09/16 10:10:03;;;;;;;;;4.00;3.25;;;;;20.44;56.77;101153.66;5074760;27;45843;-76
2021/09/16 10:12:29;;;;;;;;;4.75;4.75;;;;;20.47;56.72;101154.16;5074238;27;46481;-76
2021/09/16 10:14:55;;;;;;;;;3.25;3.00;;;;;20.50;56.58;101142.38;5073973;27;47027;-76
2021/09/16 10:17:23;;;;;;;;;4.50;3.25;;;;;20.53;56.59;101145.53;5073751;27;45690;-76
2021/09/16 10:19:48;;;;;;;;;3.00;3.00;;;;;20.55;56.30;101140.06;5074562;27;45893;-76
2021/09/16 10:22:14;;;;;;;;;3.25;3.25;;;;;20.59;56.29;101143.22;5073957;27;47312;-75
2021/09/16 10:24:40;;;;;;;;;5.00;3.00;;;;;20.61;56.10;101149.22;5073996;27;46361;-77
2021/09/16 10:27:25;;;;;;;;;4.00;3.25;;;;;20.63;56.15;101141.91;5073842;27;45773;-76
2021/09/16 10:29:51;;;;;;;;;4.00;4.00;;;;;20.65;56.08;101139.91;5073901;28;45671;-75
2021/09/16 10:32:34;;;;;;;;;5.50;4.50;;;;;20.67;56.06;101129.94;5074072;27;47567;-76
2021/09/16 10:35:16;;;;;;;;;4.00;4.00;;;;;20.74;56.27;101137.13;5072484;28;47261;-77
2021/09/16 10:37:41;;;;;;;;;6.75;5.00;;;;;20.76;55.57;101132.47;5074165;28;45640;-77
2021/09/16 10:40:25;;;;;;;;;5.00;4.00;;;;;20.80;55.83;101124.97;5072710;27;45560;-78
2021/09/16 10:42:53;;;;;;;;;4.50;4.00;;;;;20.82;55.58;101131.81;5072259;28;47255;-76
2021/09/16 10:45:27;;;;;;;;;4.25;4.00;;;;;20.77;55.62;101110.19;5073800;27;47397;-76
2021/09/16 10:48:13;;;;;;;;;4.00;4.00;;;;;20.89;55.48;101122.16;5071404;28;45761;-77
2021/09/16 10:50:48;;;;;;;;;4.75;4.50;;;;;20.93;55.51;101123.53;5073396;27;45836;-77
2021/09/16 10:53:35;;;;;;;;;4.50;4.00;;;;;20.99;55.18;101124.72;5073452;27;46053;-75
2021/09/16 10:56:02;;;;;;;;;5.25;4.50;;;;;21.02;55.21;101116.38;5075005;27;47557;-77
2021/09/16 10:58:28;;;;;;;;;3.75;3.75;;;;;21.05;54.76;101113.41;5077480;27;45767;-77
2021/09/16 11:00:54;;;;;;;;;6.25;5.75;;;;;21.08;54.79;101115.72;5077626;28;45525;-77
2021/09/16 11:03:20;;;;;;;;;4.25;4.00;;;;;21.16;54.90;101120.28;5077478;28;45605;-76
2021/09/16 11:09:02;;;;;;;;;4.00;3.00;;;;;21.22;54.48;101117.75;5077077;28;45725;-76
2021/09/16 11:11:51;;;;;;;;;4.00;4.00;;;;;21.26;54.43;101120.94;5077498;27;45593;-76
2021/09/16 11:14:26;;;;;;;;;5.00;4.00;;;;;21.27;54.11;101118.09;5077407;27;45549;-78
2021/09/16 11:16:53;;;;;;;;;4.00;4.00;;;;;21.29;53.89;101121.44;5076903;27;45987;-77
2021/09/16 11:19:18;;;;;;;;;5.00;4.00;;;;;21.27;53.78;101123.41;5077279;27;45584;-76
2021/09/16 11:25:07;;;;;;;;;6.00;4.00;;;;;21.28;53.51;101111.75;5076981;28;45524;-77
2021/09/16 11:27:36;;;;;;;;;5.00;5.00;;;;;21.25;53.44;101111.28;5077353;27;46441;-76
2021/09/16 11:30:05;;;;;;;;;4.00;4.00;;;;;21.35;53.41;101112.78;5077371;28;45721;-76
2021/09/16 11:32:36;;;;;;;;;4.00;4.00;;;;;21.40;53.35;101125.59;5077557;28;45572;-77
2021/09/16 11:35:03;;;;;;;;;5.00;4.00;;;;;21.40;53.50;101112.28;5075676;28;45705;-76
2021/09/16 11:40:51;;;;;;;;;4.50;4.50;;;;;21.46;53.18;101118.78;5076632;28;45514;-77
2021/09/16 11:43:18;;;;;;;;;3.00;3.00;;;;;21.44;52.77;101116.25;5077208;27;45619;-78
2021/09/16 11:45:52;;;;;;;;;4.75;4.50;;;;;21.48;52.44;101112.28;5076704;27;46789;-78
2021/09/16 11:48:20;;;;;;;;;5.75;5.00;;;;;21.50;52.31;101114.75;5076698;27;46357;-76
2021/09/16 11:50:52;;;;;;;;;4.00;4.00;;;;;21.55;52.81;101123.09;5076521;27;45590;-75
2021/09/16 11:56:38;;;;;;;;;6.00;5.75;;;;;21.59;52.86;101121.78;5068454;28;46073;-77
2021/09/16 11:59:08;;;;;;;;;4.50;4.25;;;;;21.64;52.51;101120.28;5078483;27;46097;-76
2021/09/16 12:01:34;;;;;;;;;6.25;5.75;;;;;21.68;52.80;101128.75;5078486;27;45579;-76
2021/09/16 12:04:01;;;;;;;;;6.00;5.00;;;;;21.72;51.94;101124.75;5078368;27;45695;-76
2021/09/16 12:06:34;;;;;;;;;5.00;4.25;;;;;21.75;51.90;101119.09;5076719;27;47158;-76
2021/09/16 12:09:01;;;;;;;;;5.00;5.00;;;;;21.78;51.99;101119.59;5076588;27;46263;-75
2021/09/16 12:11:28;;;;;;;;;5.50;5.00;;;;;21.79;52.10;101112.41;5076457;28;45563;-76
2021/09/16 12:13:59;;;;;;;;;6.00;5.00;;;;;21.85;52.17;101117.06;5076375;28;45548;-77
2021/09/16 12:16:26;;;;;;;;;5.75;5.75;;;;;21.89;51.70;101112.22;5075386;27;46460;-76
2021/09/16 12:18:57;;;;;;;;;8.25;6.00;;;;;21.91;51.49;101111.06;5075976;27;46141;-75
2021/09/16 12:21:27;;;;;;;;;6.00;5.25;;;;;21.96;51.45;101113.25;5075703;27;45657;-76
2021/09/16 12:23:57;;;;;;;;;5.25;5.00;;;;;21.97;51.18;101107.72;5074727;28;45765;-76
2021/09/16 12:26:25;;;;;;;;;6.25;4.00;;;;;21.98;51.81;101098.72;5075542;27;47562;-77
2021/09/16 12:28:56;;;;;;;;;4.00;3.25;;;;;22.06;50.94;101096.03;5074677;28;46310;-75
2021/09/16 12:31:33;;;;;;;;;6.00;5.25;;;;;22.09;51.42;101089.50;5075832;27;45497;-75
2021/09/16 12:34:01;;;;;;;;;5.00;5.00;;;;;22.15;50.92;101084.31;5076028;27;45904;-75